createdAt,value
2022-10-01T00:02:29.267Z,83.67
2022-10-01T00:04:57.644Z,83.93
2022-10-01T00:07:26.193Z,83.82
2022-10-01T00:09:54.209Z,83.97
2022-10-01T00:12:22.168Z,83.53
2022-10-01T00:14:51.053Z,83.64
2022-10-01T00:17:19.013Z,83.50
2022-10-01T00:19:48.370Z,83.25
2022-10-01T00:22:16.396Z,83.36
2022-10-01T00:24:46.054Z,83.44
2022-10-01T00:27:14.231Z,82.88
2022-10-01T00:29:44.193Z,82.56
2022-10-01T00:32:12.396Z,82.03
2022-10-01T00:34:40.416Z,81.93
2022-10-01T00:37:10.572Z,81.98
2022-10-01T00:39:39.102Z,82.03
2022-10-01T00:42:20.370Z,81.73
2022-10-01T00:44:49.220Z,81.52
2022-10-01T00:47:29.405Z,81.50
2022-10-01T00:50:05.809Z,81.57
2022-10-01T00:52:41.391Z,80.64
2022-10-01T00:55:16.554Z,79.99
2022-10-01T00:57:46.404Z,80.25
2022-10-01T01:00:15.964Z,80.14
2022-10-01T01:02:44.598Z,80.24
2022-10-01T01:05:13.972Z,79.75
2022-10-01T01:07:49.399Z,78.43
2022-10-01T01:10:25.236Z,77.94
2022-10-01T01:13:12.824Z,77.68
2022-10-01T01:15:50.987Z,76.67
2022-10-01T01:18:30.087Z,76.85
2022-10-01T01:21:22.218Z,77.18
2022-10-01T01:24:40.231Z,77.91
2022-10-01T01:27:31.324Z,77.32
2022-10-01T01:30:06.107Z,78.23
2022-10-01T01:32:47.816Z,78.84
2022-10-01T01:35:25.201Z,78.41
2022-10-01T01:38:01.928Z,78.31
2022-10-01T01:40:36.806Z,77.59
2022-10-01T01:43:09.195Z,77.38
2022-10-01T01:45:41.199Z,77.23
2022-10-01T01:48:12.920Z,77.16
2022-10-01T01:50:49.982Z,75.23
2022-10-01T01:53:17.994Z,75.31
2022-10-01T01:55:49.298Z,75.82
2022-10-01T01:58:19.808Z,75.05
2022-10-01T02:00:52.756Z,75.13
2022-10-01T02:03:22.381Z,74.55
2022-10-01T02:06:02.737Z,75.51
2022-10-01T02:08:44.142Z,75.39
2022-10-01T02:11:25.904Z,75.46
2022-10-01T02:14:15.762Z,75.51
2022-10-01T02:16:51.410Z,74.96
2022-10-01T02:19:31.054Z,74.88
2022-10-01T02:22:06.125Z,74.52
2022-10-01T02:24:42.711Z,74.72
2022-10-01T02:27:20.120Z,75.12
2022-10-01T02:29:50.918Z,75.75
2022-10-01T02:32:22.917Z,75.98
2022-10-01T02:34:53.809Z,76.03
2022-10-01T02:37:28.663Z,76.00
2022-10-01T02:40:00.335Z,75.98
2022-10-01T02:42:31.879Z,75.49
2022-10-01T02:45:04.856Z,75.39
2022-10-01T02:47:43.566Z,74.97
2022-10-01T02:50:14.063Z,74.66
2022-10-01T02:52:49.187Z,75.16
2022-10-01T02:55:22.202Z,74.89
2022-10-01T02:57:49.985Z,75.24
2022-10-01T03:00:21.576Z,74.78
2022-10-01T03:02:51.916Z,74.15
2022-10-01T03:05:20.422Z,74.01
2022-10-01T03:07:49.209Z,74.33
2022-10-01T03:10:17.883Z,74.15
2022-10-01T03:12:46.656Z,73.89
2022-10-01T03:15:19.081Z,74.00
2022-10-01T03:17:51.244Z,74.17
2022-10-01T03:20:20.688Z,75.05
2022-10-01T03:22:49.062Z,74.65
2022-10-01T03:25:18.100Z,74.51
2022-10-01T03:27:47.086Z,73.49
2022-10-01T03:30:15.458Z,73.01
2022-10-01T03:32:43.481Z,73.85
2022-10-01T03:35:11.593Z,74.65
2022-10-01T03:37:40.971Z,75.12
2022-10-01T03:40:10.068Z,73.74
2022-10-01T03:42:38.060Z,73.34
2022-10-01T03:45:06.761Z,74.15
2022-10-01T03:47:35.069Z,73.62
2022-10-01T03:50:03.088Z,74.24
2022-10-01T03:52:31.078Z,74.34
2022-10-01T03:55:00.845Z,74.29
2022-10-01T03:57:28.842Z,73.73
2022-10-01T03:59:56.800Z,73.97
2022-10-01T04:02:25.449Z,74.09
2022-10-01T04:04:53.504Z,74.33
2022-10-01T04:07:21.919Z,73.41
2022-10-01T04:09:51.002Z,72.91
2022-10-01T04:12:20.320Z,73.48
2022-10-01T04:14:48.358Z,73.79
2022-10-01T04:17:16.366Z,72.90
2022-10-01T04:19:44.329Z,72.67
2022-10-01T04:22:12.302Z,72.78
2022-10-01T04:24:40.245Z,72.89
2022-10-01T04:27:08.266Z,72.71
2022-10-01T04:29:40.399Z,73.36
2022-10-01T04:32:08.554Z,73.45
2022-10-01T04:34:54.810Z,73.47
2022-10-01T04:37:24.335Z,72.96
2022-10-01T04:39:52.415Z,73.84
2022-10-01T04:42:20.429Z,74.37
2022-10-01T04:44:50.026Z,73.70
2022-10-01T04:47:17.989Z,73.43
2022-10-01T04:49:45.984Z,74.07
2022-10-01T04:52:14.031Z,74.82
2022-10-01T04:54:42.113Z,75.29
2022-10-01T04:57:10.100Z,75.72
2022-10-01T04:59:38.084Z,75.21
2022-10-01T05:02:07.483Z,74.86
2022-10-01T05:04:35.496Z,74.69
2022-10-01T05:07:03.559Z,74.51
2022-10-01T05:09:31.659Z,73.79
2022-10-01T05:11:59.659Z,74.41
2022-10-01T05:14:27.676Z,74.84
2022-10-01T05:16:55.647Z,75.00
2022-10-01T05:19:28.925Z,75.30
2022-10-01T05:21:57.050Z,75.30
2022-10-01T05:24:25.472Z,74.08
2022-10-01T05:26:54.390Z,74.30
2022-10-01T05:29:23.011Z,75.01
2022-10-01T05:31:51.004Z,74.41
2022-10-01T05:34:19.031Z,74.53
2022-10-01T05:36:48.405Z,74.60
2022-10-01T05:39:16.476Z,73.75
2022-10-01T05:41:44.460Z,72.65
2022-10-01T05:44:12.479Z,72.12
2022-10-01T05:46:40.582Z,71.14
2022-10-01T05:49:08.679Z,70.92
2022-10-01T05:51:36.974Z,71.16
2022-10-01T05:54:06.579Z,70.65
2022-10-01T05:56:35.008Z,70.14
2022-10-01T05:59:03.002Z,70.20
2022-10-01T06:01:31.735Z,69.83
2022-10-01T06:04:00.238Z,70.23
2022-10-01T06:06:30.108Z,69.62
2022-10-01T06:08:58.107Z,69.62
2022-10-01T06:11:27.447Z,68.97
2022-10-01T06:13:55.451Z,69.46
2022-10-01T06:16:23.457Z,70.01
2022-10-01T06:18:57.297Z,70.18
2022-10-01T06:21:26.004Z,69.55
2022-10-01T06:23:54.967Z,70.03
2022-10-01T06:26:23.086Z,69.63
2022-10-01T06:28:52.809Z,70.51
2022-10-01T06:31:21.524Z,69.17
2022-10-01T06:33:49.544Z,69.20
2022-10-01T06:36:17.639Z,68.71
2022-10-01T06:38:48.443Z,68.71
2022-10-01T06:41:16.453Z,68.77
2022-10-01T06:43:44.441Z,68.04
2022-10-01T06:46:13.826Z,68.19
2022-10-01T06:48:41.794Z,68.78
2022-10-01T06:51:09.767Z,68.01
2022-10-01T06:53:37.187Z,68.50
2022-10-01T06:56:07.174Z,68.82
2022-10-01T06:58:36.502Z,67.19
2022-10-01T07:01:04.913Z,67.36
2022-10-01T07:03:34.834Z,67.94
2022-10-01T07:06:04.901Z,66.93
2022-10-01T07:08:33.419Z,66.42
2022-10-01T07:11:03.514Z,66.22
2022-10-01T07:13:32.064Z,66.75
2022-10-01T07:16:00.247Z,65.46
2022-10-01T07:18:28.296Z,65.75
2022-10-01T07:20:59.401Z,65.23
2022-10-01T07:23:27.430Z,65.60
2022-10-01T07:25:55.466Z,65.28
2022-10-01T07:28:25.726Z,65.63
2022-10-01T07:31:02.008Z,65.92
2022-10-01T07:33:30.502Z,65.40
2022-10-01T07:36:03.569Z,65.39
2022-10-01T07:38:33.312Z,65.36
2022-10-01T07:41:02.947Z,64.25
2022-10-01T07:43:32.268Z,65.16
2022-10-01T07:46:01.950Z,66.44
2022-10-01T07:48:31.005Z,66.83
2022-10-01T07:50:59.002Z,68.68
2022-10-01T07:53:28.709Z,69.36
2022-10-01T07:55:56.777Z,69.34
2022-10-01T07:58:24.747Z,70.62
2022-10-01T08:00:56.002Z,70.92
2022-10-01T08:03:24.362Z,71.53
2022-10-01T08:05:54.574Z,71.84
2022-10-01T08:08:22.549Z,72.80
2022-10-01T08:10:51.889Z,73.10
2022-10-01T08:13:24.619Z,73.36
2022-10-01T08:15:54.769Z,73.96
2022-10-01T08:18:24.347Z,74.46
2022-10-01T08:20:52.531Z,74.31
2022-10-01T08:23:20.492Z,73.85
2022-10-01T08:25:49.338Z,74.78
2022-10-01T08:28:19.467Z,74.40
2022-10-01T08:30:47.470Z,73.96
2022-10-01T08:33:15.823Z,74.02
2022-10-01T08:35:44.664Z,74.25
2022-10-01T08:38:14.204Z,74.35
2022-10-01T08:40:50.058Z,75.09
2022-10-01T08:43:32.605Z,73.54
2022-10-01T08:46:05.691Z,72.73
2022-10-01T08:48:57.180Z,72.82
2022-10-01T08:51:36.137Z,71.64
2022-10-01T08:54:19.818Z,71.68
2022-10-01T08:56:48.888Z,71.79
2022-10-01T08:59:39.057Z,69.97
2022-10-01T09:02:21.933Z,69.57
2022-10-01T09:05:00.316Z,69.28
2022-10-01T09:07:50.537Z,69.73
2022-10-01T09:10:35.808Z,70.36
2022-10-01T09:13:32.413Z,70.90
2022-10-01T09:16:13.076Z,70.89
2022-10-01T09:19:01.225Z,71.57
2022-10-01T09:21:48.726Z,71.96
2022-10-01T09:24:27.997Z,73.20
2022-10-01T09:26:56.209Z,73.70
2022-10-01T09:29:31.052Z,73.75
2022-10-01T09:32:03.981Z,74.41
2022-10-01T09:34:38.857Z,76.09
2022-10-01T09:37:19.338Z,77.04
2022-10-01T09:40:04.721Z,77.76
2022-10-01T09:42:33.148Z,77.91
2022-10-01T09:45:01.153Z,77.65
2022-10-01T09:47:34.455Z,78.12
2022-10-01T09:50:07.182Z,79.10
2022-10-01T09:52:39.676Z,78.14
2022-10-01T09:55:23.844Z,78.26
2022-10-01T09:58:01.025Z,79.12
2022-10-01T10:00:29.483Z,79.10
2022-10-01T10:02:59.099Z,79.37
2022-10-01T10:05:29.385Z,80.24
2022-10-01T10:08:04.087Z,79.77
2022-10-01T10:10:35.704Z,79.34
2022-10-01T10:13:31.656Z,80.25
2022-10-01T10:16:01.237Z,80.67
2022-10-01T10:18:34.564Z,80.42
2022-10-01T10:21:07.945Z,80.93
2022-10-01T10:23:46.858Z,80.55
2022-10-01T10:26:21.937Z,80.16
2022-10-01T10:28:50.010Z,80.46
2022-10-01T10:31:22.796Z,81.22
2022-10-01T10:33:58.730Z,81.41
2022-10-01T10:36:31.006Z,82.03
2022-10-01T10:39:00.735Z,82.15
2022-10-01T10:41:31.365Z,82.89
2022-10-01T10:44:06.245Z,83.20
2022-10-01T10:46:42.775Z,82.36
2022-10-01T10:49:22.406Z,82.37
2022-10-01T10:51:54.293Z,82.36
2022-10-01T10:54:29.189Z,82.59
2022-10-01T10:57:02.296Z,82.61
2022-10-01T10:59:35.001Z,82.95
2022-10-01T11:02:06.931Z,81.62
2022-10-01T11:04:44.192Z,81.47
2022-10-01T11:07:19.689Z,81.47
2022-10-01T11:10:33.666Z,81.87
2022-10-01T11:13:28.210Z,81.25
2022-10-01T11:16:24.205Z,80.47
2022-10-01T11:19:15.115Z,79.93
2022-10-01T11:22:08.327Z,79.47
2022-10-01T11:25:00.899Z,79.75
2022-10-01T11:27:45.592Z,80.60
2022-10-01T11:30:21.865Z,79.30
2022-10-01T11:33:04.641Z,78.79
2022-10-01T11:35:55.358Z,79.10
2022-10-01T11:38:49.313Z,79.58
2022-10-01T11:41:34.872Z,78.76
2022-10-01T11:44:12.307Z,78.87
2022-10-01T11:46:54.318Z,78.06
2022-10-01T11:49:44.573Z,77.69
2022-10-01T11:52:27.806Z,77.48
2022-10-01T11:55:30.131Z,77.01
2022-10-01T11:58:24.216Z,77.69
2022-10-01T12:01:04.705Z,77.54
2022-10-01T12:03:56.049Z,76.03
2022-10-01T12:06:34.045Z,76.82
2022-10-01T12:09:14.181Z,76.01
2022-10-01T12:11:53.928Z,75.03
2022-10-01T12:14:31.348Z,75.65
2022-10-01T12:17:12.140Z,75.17
2022-10-01T12:19:48.184Z,75.19
2022-10-01T12:22:25.614Z,75.59
2022-10-01T12:24:54.239Z,75.21
2022-10-01T12:27:47.801Z,74.67
2022-10-01T12:30:21.434Z,75.10
2022-10-01T12:33:11.861Z,74.63
2022-10-01T12:35:58.319Z,73.74
2022-10-01T12:38:54.157Z,74.78
2022-10-01T12:41:43.156Z,73.30
2022-10-01T12:44:35.105Z,72.48
2022-10-01T12:47:24.971Z,71.64
2022-10-01T12:50:10.705Z,70.79
2022-10-01T12:52:51.409Z,70.99
2022-10-01T12:55:37.085Z,71.06
2022-10-01T12:58:20.040Z,71.33
2022-10-01T13:01:05.234Z,70.06
2022-10-01T13:04:11.043Z,70.35
2022-10-01T13:07:04.753Z,70.57
2022-10-01T13:09:49.109Z,70.13
2022-10-01T13:12:38.289Z,70.55
2022-10-01T13:15:14.542Z,71.65
2022-10-01T13:17:53.722Z,71.88
2022-10-01T13:20:31.892Z,71.84
2022-10-01T13:23:09.002Z,71.97
2022-10-01T13:25:47.653Z,71.57
2022-10-01T13:28:25.834Z,72.04
2022-10-01T13:31:00.690Z,71.41
2022-10-01T13:33:32.600Z,70.80
2022-10-01T13:36:03.479Z,70.82
2022-10-01T13:38:42.536Z,70.99
2022-10-01T13:41:23.423Z,70.34
2022-10-01T13:43:58.250Z,70.45
2022-10-01T13:46:31.460Z,70.49
2022-10-01T13:49:17.800Z,70.11
2022-10-01T13:51:47.374Z,70.29
2022-10-01T13:54:28.405Z,70.67
2022-10-01T13:56:56.505Z,70.04
2022-10-01T13:59:35.698Z,70.20
2022-10-01T14:02:04.701Z,70.30
2022-10-01T14:04:41.737Z,70.11
2022-10-01T14:07:18.836Z,69.43
2022-10-01T14:09:51.284Z,68.35
2022-10-01T14:12:43.205Z,68.62
2022-10-01T14:15:36.829Z,67.95
2022-10-01T14:18:12.368Z,67.82
2022-10-01T14:20:58.817Z,67.20
2022-10-01T14:23:37.690Z,65.95
2022-10-01T14:26:18.088Z,67.76
2022-10-01T14:29:11.145Z,67.11
2022-10-01T14:31:53.027Z,67.54
2022-10-01T14:34:52.284Z,66.83
2022-10-01T14:37:22.571Z,66.84
2022-10-01T14:40:03.246Z,68.21
2022-10-01T14:42:31.263Z,68.71
2022-10-01T14:44:59.320Z,68.99
2022-10-01T14:47:34.858Z,69.23
2022-10-01T14:50:11.777Z,69.44
2022-10-01T14:52:50.991Z,69.53
2022-10-01T14:55:24.418Z,70.20
2022-10-01T14:57:56.506Z,68.44
2022-10-01T15:00:28.174Z,68.80
2022-10-01T15:03:12.547Z,67.82
2022-10-01T15:05:40.604Z,67.56
2022-10-01T15:08:15.593Z,67.33
2022-10-01T15:10:50.815Z,67.45
2022-10-01T15:13:27.287Z,68.04
2022-10-01T15:15:56.930Z,68.13
2022-10-01T15:18:25.850Z,69.08
2022-10-01T15:20:58.740Z,69.94
2022-10-01T15:23:31.522Z,69.86
2022-10-01T15:26:03.706Z,69.95
2022-10-01T15:28:34.446Z,71.11
2022-10-01T15:31:06.002Z,71.29
2022-10-01T15:33:37.227Z,70.78
2022-10-01T15:36:08.459Z,71.43
2022-10-01T15:38:38.610Z,71.06
2022-10-01T15:41:30.572Z,70.68
2022-10-01T15:43:58.363Z,72.16
2022-10-01T15:46:33.175Z,72.04
2022-10-01T15:49:25.970Z,72.78
2022-10-01T15:52:17.606Z,73.09
2022-10-01T15:54:48.437Z,73.37
2022-10-01T15:57:22.290Z,73.33
2022-10-01T15:59:54.167Z,73.46
2022-10-01T16:02:27.203Z,73.25
2022-10-01T16:04:56.606Z,73.89
2022-10-01T16:07:33.432Z,74.25
2022-10-01T16:10:27.571Z,73.55
2022-10-01T16:12:55.693Z,73.88
2022-10-01T16:15:29.570Z,74.08
2022-10-01T16:18:02.285Z,74.03
2022-10-01T16:20:42.882Z,73.94
2022-10-01T16:23:37.719Z,73.95
2022-10-01T16:26:32.246Z,74.40
2022-10-01T16:29:04.042Z,74.64
2022-10-01T16:31:32.935Z,73.68
2022-10-01T16:34:00.932Z,73.43
2022-10-01T16:36:28.891Z,73.81
2022-10-01T16:38:57.371Z,74.45
2022-10-01T16:41:28.350Z,74.64
2022-10-01T16:43:59.096Z,73.98
2022-10-01T16:46:27.304Z,74.29
2022-10-01T16:48:55.272Z,75.10
2022-10-01T16:51:23.229Z,75.17
2022-10-01T16:53:52.299Z,75.26
2022-10-01T16:56:24.833Z,75.48
2022-10-01T16:58:56.383Z,75.40
2022-10-01T17:01:24.457Z,75.88
2022-10-01T17:03:52.505Z,75.64
2022-10-01T17:06:20.482Z,76.14
2022-10-01T17:08:48.489Z,76.74
2022-10-01T17:11:16.508Z,76.51
2022-10-01T17:13:44.539Z,76.17
2022-10-01T17:16:13.996Z,76.88
2022-10-01T17:18:43.698Z,77.03
2022-10-01T17:21:12.001Z,77.40
2022-10-01T17:23:40.021Z,77.48
2022-10-01T17:26:09.427Z,77.18
2022-10-01T17:28:37.439Z,77.25
2022-10-01T17:31:08.452Z,77.90
2022-10-01T17:33:38.974Z,78.01
2022-10-01T17:36:09.141Z,77.11
2022-10-01T17:38:37.308Z,77.51
2022-10-01T17:41:05.623Z,78.05
2022-10-01T17:43:33.729Z,78.15
2022-10-01T17:46:02.690Z,78.57
2022-10-01T17:48:31.226Z,78.73
2022-10-01T17:51:03.391Z,78.56
2022-10-01T17:53:36.117Z,78.78
2022-10-01T17:56:09.794Z,78.64
2022-10-01T17:58:40.601Z,78.86
2022-10-01T18:01:14.950Z,78.74
2022-10-01T18:03:43.069Z,78.40
2022-10-01T18:06:15.262Z,78.79
2022-10-01T18:08:58.709Z,79.59
2022-10-01T18:11:29.081Z,79.73
2022-10-01T18:13:57.160Z,79.29
2022-10-01T18:16:26.788Z,79.73
2022-10-01T18:21:51.494Z,80.21
2022-10-01T18:24:19.648Z,80.43
2022-10-01T18:26:47.898Z,80.97
2022-10-01T18:29:21.463Z,80.94
2022-10-01T18:31:56.000Z,79.67
2022-10-01T18:34:33.359Z,78.75
2022-10-01T18:37:09.229Z,77.21
2022-10-01T18:39:44.104Z,77.69
2022-10-01T18:42:21.285Z,76.79
2022-10-01T18:44:56.346Z,77.67
2022-10-01T18:47:42.645Z,77.85
2022-10-01T18:50:29.236Z,78.89
2022-10-01T18:53:22.109Z,79.33
2022-10-01T18:56:19.603Z,78.54
2022-10-01T18:59:30.879Z,79.24
2022-10-01T19:02:36.947Z,80.28
2022-10-01T19:06:03.571Z,80.40
2022-10-01T19:09:12.939Z,77.92
2022-10-01T19:11:54.172Z,77.79
2022-10-01T19:14:44.766Z,78.17
2022-10-01T19:17:36.376Z,77.30
2022-10-01T19:20:37.625Z,76.83
2022-10-01T19:23:25.005Z,75.93
2022-10-01T19:26:04.584Z,76.44
2022-10-01T19:28:57.852Z,76.68
2022-10-01T19:31:37.307Z,77.44
2022-10-01T19:34:13.899Z,76.44
2022-10-01T19:36:51.473Z,76.86
2022-10-01T19:39:25.141Z,77.48
2022-10-01T19:42:00.316Z,77.98
2022-10-01T19:44:38.141Z,78.71
2022-10-01T19:47:19.504Z,78.91
2022-10-01T19:49:50.152Z,79.06
2022-10-01T19:52:21.131Z,78.83
2022-10-01T19:54:58.701Z,78.03
2022-10-01T19:57:34.786Z,77.74
2022-10-01T20:00:10.330Z,78.26
2022-10-01T20:02:51.338Z,78.34
2022-10-01T20:05:29.189Z,78.66
2022-10-01T20:08:08.788Z,79.19
2022-10-01T20:10:44.846Z,79.68
2022-10-01T20:13:39.888Z,79.55
2022-10-01T20:16:23.063Z,78.29
2022-10-01T20:19:01.165Z,78.85
2022-10-01T20:21:50.385Z,76.89
2022-10-01T20:24:53.047Z,77.55
2022-10-01T20:27:39.037Z,77.67
2022-10-01T20:30:12.969Z,77.70
2022-10-01T20:32:51.734Z,78.40
2022-10-01T20:35:31.197Z,79.44
2022-10-01T20:38:07.883Z,79.16
2022-10-01T20:40:44.856Z,79.00
2022-10-01T20:43:18.912Z,79.67
2022-10-01T20:45:54.606Z,80.46
2022-10-01T20:48:28.764Z,80.39
2022-10-01T20:51:08.237Z,81.11
2022-10-01T20:53:45.998Z,81.70
2022-10-01T20:56:19.927Z,81.63
2022-10-01T20:58:53.859Z,79.68
2022-10-01T21:01:26.141Z,80.28
2022-10-01T21:04:02.607Z,80.63
2022-10-01T21:06:38.255Z,80.78
2022-10-01T21:09:18.450Z,81.41
2022-10-01T21:11:54.773Z,82.08
2022-10-01T21:14:29.817Z,82.01
2022-10-01T21:17:24.491Z,82.62
2022-10-01T21:20:24.674Z,82.65
2022-10-01T21:23:11.365Z,83.30
2022-10-01T21:25:59.298Z,83.73
2022-10-01T21:28:57.250Z,83.80
2022-10-01T21:31:44.895Z,84.30
2022-10-01T21:34:24.181Z,84.82
2022-10-01T21:37:06.128Z,84.44
2022-10-01T21:39:46.914Z,84.21
2022-10-01T21:42:19.079Z,84.51
2022-10-01T21:45:24.633Z,84.68
2022-10-01T21:48:17.214Z,84.88
2022-10-01T21:50:55.102Z,85.04
2022-10-01T21:53:53.829Z,84.93
2022-10-01T21:56:46.117Z,84.78
2022-10-01T21:59:35.557Z,84.94
2022-10-01T22:02:20.531Z,83.61
2022-10-01T22:04:57.477Z,81.83
2022-10-01T22:07:35.348Z,80.40
2022-10-01T22:10:16.159Z,80.37
2022-10-01T22:12:50.770Z,80.81
2022-10-01T22:15:28.414Z,80.80
2022-10-01T22:17:58.814Z,80.76
2022-10-01T22:20:31.780Z,80.75
2022-10-01T22:23:08.158Z,81.04
2022-10-01T22:25:44.406Z,81.66
2022-10-01T22:28:21.461Z,81.98
2022-10-01T22:30:54.848Z,82.08
2022-10-01T22:33:33.594Z,82.21
2022-10-01T22:36:09.974Z,82.81
2022-10-01T22:38:46.894Z,83.53
2022-10-01T22:41:25.351Z,83.98
2022-10-01T22:43:53.596Z,84.29
2022-10-01T22:47:05.887Z,83.60
2022-10-01T22:49:53.065Z,83.71
2022-10-01T22:52:36.452Z,84.25
2022-10-01T22:55:22.304Z,84.65
2022-10-01T22:58:25.124Z,84.67
2022-10-01T23:01:11.117Z,84.84
2022-10-01T23:03:57.070Z,85.10
2022-10-01T23:06:39.239Z,85.54
2022-10-01T23:09:16.420Z,85.93
2022-10-01T23:11:56.362Z,85.88
2022-10-01T23:14:49.728Z,85.93
2022-10-01T23:17:26.589Z,86.25
2022-10-01T23:20:14.910Z,86.86
2022-10-01T23:23:17.287Z,86.84
2022-10-01T23:26:11.180Z,87.51
2022-10-01T23:29:01.302Z,87.65
2022-10-01T23:31:40.471Z,87.75
2022-10-01T23:34:28.136Z,87.92
2022-10-01T23:37:16.067Z,87.63
2022-10-01T23:39:52.043Z,88.08
2022-10-01T23:42:35.788Z,87.97
2022-10-01T23:45:19.890Z,88.20
2022-10-01T23:47:59.439Z,87.27
2022-10-01T23:50:36.046Z,87.49
2022-10-01T23:53:16.165Z,88.05
2022-10-01T23:56:10.826Z,88.27
2022-10-01T23:58:49.804Z,88.90
